createdAt,value
2018-07-22T00:00:05.735Z,2.20
2018-07-22T00:02:43.843Z,2.40
2018-07-22T00:05:22.890Z,2.53
2018-07-22T00:08:01.330Z,2.47
2018-07-22T00:10:39.684Z,2.47
2018-07-22T00:13:18.169Z,2.50
2018-07-22T00:15:56.832Z,2.07
2018-07-22T00:18:35.537Z,2.00
2018-07-22T00:21:14.001Z,2.00
2018-07-22T00:23:52.423Z,2.30
2018-07-22T00:26:29.305Z,2.50
2018-07-22T00:29:10.435Z,2.50
2018-07-22T00:31:48.140Z,2.70
2018-07-22T00:34:26.270Z,3.00
2018-07-22T00:37:04.654Z,3.67
2018-07-22T00:39:42.738Z,3.10
2018-07-22T00:42:21.142Z,3.30
2018-07-22T00:44:59.227Z,3.33
2018-07-22T00:47:37.662Z,2.93
2018-07-22T00:50:15.773Z,2.87
2018-07-22T00:52:54.418Z,2.77
2018-07-22T00:55:32.760Z,2.70
2018-07-22T00:58:10.640Z,2.73
2018-07-22T01:00:48.372Z,2.63
2018-07-22T01:03:27.442Z,3.10
2018-07-22T01:06:05.644Z,3.20
2018-07-22T01:08:44.571Z,3.20
2018-07-22T01:11:23.044Z,3.57
2018-07-22T01:14:01.444Z,3.10
2018-07-22T01:16:40.414Z,3.50
2018-07-22T01:19:18.767Z,3.63
2018-07-22T01:21:56.649Z,3.77
2018-07-22T01:24:35.612Z,3.53
2018-07-22T01:27:14.569Z,3.57
2018-07-22T01:29:52.337Z,3.50
2018-07-22T01:32:31.306Z,4.10
2018-07-22T01:35:10.269Z,3.77
2018-07-22T01:37:48.175Z,3.50
2018-07-22T01:40:26.500Z,3.17
2018-07-22T01:43:05.027Z,4.00
2018-07-22T01:45:43.059Z,4.10
2018-07-22T01:48:24.671Z,3.70
2018-07-22T01:51:02.500Z,3.53
2018-07-22T01:53:40.261Z,3.50
2018-07-22T01:56:19.388Z,3.70
2018-07-22T01:58:56.631Z,3.30
2018-07-22T02:01:35.789Z,3.63
2018-07-22T02:04:14.805Z,3.20
2018-07-22T02:06:53.574Z,3.50
2018-07-22T02:09:32.152Z,3.30
2018-07-22T02:12:10.660Z,3.30
2018-07-22T02:14:49.446Z,2.90
2018-07-22T02:17:27.555Z,3.10
2018-07-22T02:20:05.419Z,3.00
2018-07-22T02:22:44.018Z,3.30
2018-07-22T02:25:22.097Z,3.37
2018-07-22T02:28:00.871Z,3.50
2018-07-22T02:30:39.194Z,4.00
2018-07-22T02:33:17.196Z,3.20
2018-07-22T02:35:55.910Z,3.30
2018-07-22T02:38:33.293Z,3.20
2018-07-22T02:41:11.774Z,3.03
2018-07-22T02:43:50.008Z,2.83
2018-07-22T02:46:28.656Z,2.90
2018-07-22T02:49:07.707Z,3.27
2018-07-22T02:51:53.639Z,4.00
2018-07-22T02:57:19.887Z,4.20
2018-07-22T02:59:59.290Z,4.23
2018-07-22T03:02:37.602Z,4.63
2018-07-22T03:05:20.693Z,3.83
2018-07-22T03:07:59.203Z,3.87
2018-07-22T03:10:38.514Z,4.30
2018-07-22T03:13:19.841Z,3.87
2018-07-22T03:15:58.267Z,3.57
2018-07-22T03:18:38.250Z,3.70
2018-07-22T03:21:17.030Z,3.97
2018-07-22T03:23:55.334Z,4.00
2018-07-22T03:26:35.703Z,3.60
2018-07-22T03:29:16.018Z,3.57
2018-07-22T03:31:54.451Z,3.37
2018-07-22T03:34:37.001Z,3.23
2018-07-22T03:37:32.064Z,2.63
2018-07-22T03:40:14.212Z,2.37
2018-07-22T03:42:53.285Z,2.50
2018-07-22T03:45:31.698Z,2.30
2018-07-22T03:48:15.856Z,2.20
2018-07-22T03:50:54.409Z,2.50
2018-07-22T03:53:37.600Z,2.40
2018-07-22T03:56:16.020Z,2.43
2018-07-22T03:58:54.094Z,2.60
2018-07-22T04:01:32.875Z,2.77
2018-07-22T04:04:10.564Z,2.90
2018-07-22T04:06:49.599Z,3.57
2018-07-22T04:09:28.326Z,3.03
2018-07-22T04:12:06.724Z,2.97
2018-07-22T04:14:44.803Z,2.97
2018-07-22T04:17:23.294Z,2.90
2018-07-22T04:20:00.677Z,3.20
2018-07-22T04:22:39.681Z,3.20
2018-07-22T04:25:17.484Z,2.63
2018-07-22T04:27:53.440Z,3.00
2018-07-22T04:30:31.767Z,3.20
2018-07-22T04:33:09.764Z,3.17
2018-07-22T04:35:48.604Z,3.30
2018-07-22T04:38:27.196Z,3.50
2018-07-22T04:41:05.605Z,3.20
2018-07-22T04:43:42.914Z,3.10
2018-07-22T04:46:23.063Z,3.20
2018-07-22T04:49:01.269Z,3.30
2018-07-22T04:51:38.600Z,3.80
2018-07-22T04:54:17.403Z,3.77
2018-07-22T04:56:55.685Z,4.03
2018-07-22T04:59:33.668Z,3.33
2018-07-22T05:02:11.559Z,3.63
2018-07-22T05:04:50.886Z,3.90
2018-07-22T05:07:28.628Z,3.93
2018-07-22T05:10:06.388Z,4.00
2018-07-22T05:12:44.844Z,3.67
2018-07-22T05:15:24.716Z,4.30
2018-07-22T05:18:03.438Z,4.70
2018-07-22T05:20:40.806Z,4.57
2018-07-22T05:23:27.085Z,4.40
2018-07-22T05:26:04.762Z,3.93
2018-07-22T05:28:42.165Z,4.27
2018-07-22T05:31:20.555Z,4.27
2018-07-22T05:33:59.276Z,4.40
2018-07-22T05:36:38.316Z,4.47
2018-07-22T05:39:17.032Z,4.77
2018-07-22T05:41:55.461Z,3.97
2018-07-22T05:44:33.830Z,4.03
2018-07-22T05:47:12.591Z,3.60
2018-07-22T05:49:50.316Z,3.77
2018-07-22T05:52:28.341Z,3.20
2018-07-22T05:55:07.037Z,3.17
2018-07-22T05:57:45.337Z,3.87
2018-07-22T06:00:24.271Z,3.80
2018-07-22T06:03:02.909Z,3.83
2018-07-22T06:05:44.261Z,3.23
2018-07-22T06:08:23.544Z,3.87
2018-07-22T06:11:02.088Z,4.30
2018-07-22T06:13:41.036Z,4.13
2018-07-22T06:16:19.548Z,4.13
2018-07-22T06:18:57.786Z,3.63
2018-07-22T06:21:35.920Z,3.70
2018-07-22T06:24:14.024Z,3.40
2018-07-22T06:26:53.056Z,3.80
2018-07-22T06:29:30.710Z,3.20
2018-07-22T06:32:09.152Z,3.73
2018-07-22T06:34:47.755Z,3.63
2018-07-22T06:37:26.273Z,4.07
2018-07-22T06:40:04.640Z,3.70
2018-07-22T06:42:43.195Z,3.43
2018-07-22T06:45:21.988Z,3.73
2018-07-22T06:48:00.153Z,4.13
2018-07-22T06:50:39.114Z,3.93
2018-07-22T06:53:16.885Z,3.80
2018-07-22T06:55:56.237Z,3.60
2018-07-22T06:58:35.282Z,3.57
2018-07-22T07:01:13.759Z,3.60
2018-07-22T07:03:52.029Z,3.17
2018-07-22T07:06:30.262Z,3.80
2018-07-22T07:09:09.725Z,3.33
2018-07-22T07:11:48.318Z,3.60
2018-07-22T07:14:26.633Z,3.50
2018-07-22T07:17:05.035Z,3.40
2018-07-22T07:19:42.933Z,3.27
2018-07-22T07:22:20.391Z,3.83
2018-07-22T07:24:58.729Z,4.07
2018-07-22T07:27:37.131Z,3.97
2018-07-22T07:30:15.202Z,3.53
2018-07-22T07:32:53.919Z,4.00
2018-07-22T07:35:32.953Z,3.93
2018-07-22T07:38:12.043Z,4.00
2018-07-22T07:40:50.455Z,4.00
2018-07-22T07:43:29.492Z,4.73
2018-07-22T07:46:07.528Z,5.50
2018-07-22T07:48:44.998Z,4.10
2018-07-22T07:51:23.251Z,3.80
2018-07-22T07:54:01.682Z,4.50
2018-07-22T07:56:40.154Z,4.87
2018-07-22T07:59:18.461Z,4.70
2018-07-22T08:01:56.565Z,5.10
2018-07-22T08:04:36.083Z,4.27
2018-07-22T08:07:15.119Z,4.13
2018-07-22T08:09:53.518Z,4.17
2018-07-22T08:12:32.648Z,4.23
2018-07-22T08:15:11.511Z,4.60
2018-07-22T08:17:49.642Z,4.60
2018-07-22T08:20:28.131Z,5.10
2018-07-22T08:23:06.261Z,4.73
2018-07-22T08:25:44.521Z,5.30
2018-07-22T08:28:28.413Z,5.37
2018-07-22T08:31:06.488Z,5.80
2018-07-22T08:33:45.837Z,6.10
2018-07-22T08:36:24.253Z,6.07
2018-07-22T08:39:02.321Z,6.10
2018-07-22T08:41:39.922Z,5.83
2018-07-22T08:44:19.118Z,5.83
2018-07-22T08:46:57.211Z,6.10
2018-07-22T08:49:35.054Z,6.00
2018-07-22T08:52:12.847Z,6.13
2018-07-22T08:54:51.863Z,6.10
2018-07-22T08:57:29.918Z,5.57
2018-07-22T09:00:08.252Z,6.63
2018-07-22T09:02:46.719Z,6.00
2018-07-22T09:05:25.184Z,6.90
2018-07-22T09:08:01.859Z,6.80
2018-07-22T09:10:37.652Z,6.10
2018-07-22T09:13:15.113Z,6.20
2018-07-22T09:15:51.087Z,6.43
2018-07-22T09:18:27.327Z,7.57
2018-07-22T09:21:03.211Z,6.83
2018-07-22T09:23:39.368Z,7.10
2018-07-22T09:26:15.396Z,6.17
2018-07-22T09:28:51.528Z,7.27
2018-07-22T09:31:27.246Z,7.30
2018-07-22T09:34:03.171Z,6.97
2018-07-22T09:36:39.520Z,6.83
2018-07-22T09:39:15.775Z,7.40
2018-07-22T09:41:51.542Z,7.80
2018-07-22T09:44:28.141Z,6.90
2018-07-22T09:47:03.981Z,7.50
2018-07-22T09:49:40.012Z,7.60
2018-07-22T09:52:15.942Z,6.87
2018-07-22T09:54:51.677Z,7.27
2018-07-22T09:57:27.687Z,6.87
2018-07-22T10:00:03.520Z,7.07
2018-07-22T10:02:39.411Z,8.10
2018-07-22T10:05:16.112Z,7.90
2018-07-22T10:07:52.034Z,6.90
2018-07-22T10:10:27.553Z,7.30
2018-07-22T10:13:03.350Z,6.50
2018-07-22T10:15:39.174Z,6.87
2018-07-22T10:18:14.832Z,6.77
2018-07-22T10:20:50.632Z,7.10
2018-07-22T10:23:26.659Z,7.50
2018-07-22T10:26:04.983Z,7.73
2018-07-22T10:28:43.421Z,7.77
2018-07-22T10:31:21.790Z,7.30
2018-07-22T10:34:00.388Z,7.37
2018-07-22T10:36:38.893Z,7.93
2018-07-22T10:39:18.080Z,7.97
2018-07-22T10:41:57.039Z,7.27
2018-07-22T10:44:35.355Z,5.40
2018-07-22T10:47:14.429Z,5.33
2018-07-22T10:49:53.760Z,5.23
2018-07-22T10:52:32.822Z,5.37
2018-07-22T10:55:10.249Z,5.60
2018-07-22T10:57:48.323Z,6.30
2018-07-22T11:00:26.996Z,6.43
2018-07-22T11:03:05.467Z,5.73
2018-07-22T11:05:43.517Z,5.57
2018-07-22T11:08:22.318Z,5.80
2018-07-22T11:11:01.288Z,6.03
2018-07-22T11:13:39.449Z,6.13
2018-07-22T11:16:18.079Z,6.43
2018-07-22T11:18:55.619Z,5.40
2018-07-22T11:21:32.639Z,5.90
2018-07-22T11:24:11.121Z,5.50
2018-07-22T11:26:49.161Z,5.90
2018-07-22T11:29:28.167Z,5.83
2018-07-22T11:32:05.582Z,6.17
2018-07-22T11:34:43.556Z,6.53
2018-07-22T11:37:22.156Z,6.60
2018-07-22T11:39:59.960Z,6.63
2018-07-22T11:42:38.254Z,7.03
2018-07-22T11:45:16.346Z,6.27
2018-07-22T11:47:54.740Z,7.27
2018-07-22T11:50:31.975Z,7.10
2018-07-22T11:53:09.918Z,7.10
2018-07-22T11:55:48.001Z,7.07
2018-07-22T11:58:26.120Z,7.23
2018-07-22T12:01:04.613Z,6.77
2018-07-22T12:03:42.240Z,7.20
2018-07-22T12:06:21.027Z,7.57
2018-07-22T12:08:59.038Z,7.50
2018-07-22T12:11:35.712Z,7.37
2018-07-22T12:14:13.914Z,7.07
2018-07-22T12:16:53.026Z,7.57
2018-07-22T12:19:30.199Z,7.30
2018-07-22T12:22:08.257Z,7.03
2018-07-22T12:24:46.379Z,7.03
2018-07-22T12:27:24.823Z,6.43
2018-07-22T12:30:02.569Z,6.50
2018-07-22T12:32:40.962Z,6.57
2018-07-22T12:35:19.365Z,6.07
2018-07-22T12:37:57.757Z,6.50
2018-07-22T12:40:35.403Z,6.30
2018-07-22T12:43:17.125Z,6.43
2018-07-22T12:45:59.944Z,6.67
2018-07-22T12:48:38.662Z,6.23
2018-07-22T12:51:17.356Z,6.43
2018-07-22T12:53:55.188Z,6.83
2018-07-22T12:56:33.197Z,7.00
2018-07-22T12:59:11.285Z,6.43
2018-07-22T13:01:50.495Z,6.67
2018-07-22T13:04:27.921Z,6.23
2018-07-22T13:07:05.689Z,5.87
2018-07-22T13:09:43.825Z,6.27
2018-07-22T13:12:22.568Z,6.43
2018-07-22T13:15:00.247Z,6.57
2018-07-22T13:17:38.718Z,6.23
2018-07-22T13:20:16.592Z,6.60
2018-07-22T13:22:53.944Z,6.60
2018-07-22T13:25:31.643Z,7.10
2018-07-22T13:28:10.086Z,7.60
2018-07-22T13:30:47.919Z,7.40
2018-07-22T13:33:27.460Z,8.07
2018-07-22T13:36:05.274Z,8.03
2018-07-22T13:38:45.993Z,7.33
2018-07-22T13:41:24.373Z,7.40
2018-07-22T13:44:02.582Z,6.37
2018-07-22T13:46:41.929Z,6.60
2018-07-22T13:49:19.770Z,6.40
2018-07-22T13:51:58.298Z,6.70
2018-07-22T13:58:14.759Z,7.07
2018-07-22T14:01:23.135Z,6.93
2018-07-22T14:06:57.094Z,7.43
2018-07-22T14:09:45.984Z,8.03
2018-07-22T14:12:52.067Z,8.93
2018-07-22T14:15:54.453Z,8.40
2018-07-22T14:18:50.390Z,10.00
2018-07-22T14:21:49.440Z,9.60
2018-07-22T14:24:45.045Z,9.93
2018-07-22T14:27:40.585Z,10.30
2018-07-22T14:30:27.018Z,10.90
2018-07-22T14:33:25.204Z,11.17
2018-07-22T14:36:23.014Z,11.63
2018-07-22T14:39:27.771Z,11.67
2018-07-22T14:42:07.188Z,12.50
2018-07-22T14:44:45.384Z,14.07
2018-07-22T14:47:22.372Z,13.27
2018-07-22T14:50:00.987Z,13.43
2018-07-22T14:52:38.211Z,13.00
2018-07-22T14:55:15.907Z,13.67
2018-07-22T14:57:58.702Z,13.60
2018-07-22T15:07:19.767Z,14.35
2018-07-22T15:09:59.369Z,13.90
2018-07-22T15:12:43.291Z,12.07
2018-07-22T15:15:24.263Z,13.03
2018-07-22T15:18:01.197Z,13.00
2018-07-22T15:20:38.331Z,13.17
2018-07-22T15:23:15.132Z,13.37
2018-07-22T15:25:53.219Z,13.50
2018-07-22T15:28:40.388Z,13.57
2018-07-22T15:31:18.399Z,12.93
2018-07-22T15:33:58.783Z,13.40
2018-07-22T15:36:37.639Z,13.27
2018-07-22T15:39:15.592Z,12.37
2018-07-22T15:41:52.810Z,12.13
2018-07-22T15:44:30.610Z,12.23
2018-07-22T15:47:07.953Z,11.13
2018-07-22T15:49:59.492Z,12.17
2018-07-22T15:52:41.642Z,11.87
2018-07-22T15:55:23.401Z,10.93
2018-07-22T15:58:08.696Z,11.07
2018-07-22T16:01:07.994Z,10.13
2018-07-22T16:03:50.346Z,10.43
2018-07-22T16:06:36.601Z,10.57
2018-07-22T16:09:23.412Z,10.23
2018-07-22T16:12:03.279Z,9.83
2018-07-22T16:29:57.266Z,10.60
2018-07-22T16:36:10.591Z,10.57
2018-07-22T16:42:39.681Z,10.78
2018-07-22T16:56:29.324Z,7.17
2018-07-22T16:59:21.441Z,4.80
2018-07-22T17:02:09.881Z,5.47
2018-07-22T17:05:01.812Z,4.20
2018-07-22T17:07:54.056Z,4.37
2018-07-22T17:14:08.463Z,4.57
2018-07-22T17:19:38.902Z,3.50
2018-07-22T17:22:34.126Z,3.90
2018-07-22T17:25:30.276Z,4.03
2018-07-22T17:31:21.092Z,4.30
2018-07-22T18:20:41.110Z,3.40
2018-07-22T19:05:53.328Z,4.10
2018-07-22T19:08:46.909Z,3.47
2018-07-22T19:11:27.134Z,3.97
2018-07-22T19:14:14.287Z,3.83
2018-07-22T19:17:00.500Z,4.20
2018-07-22T19:22:44.044Z,4.00
2018-07-22T19:25:28.450Z,3.70
2018-07-22T19:28:08.330Z,3.93
2018-07-22T19:30:47.092Z,4.33
2018-07-22T19:33:41.995Z,3.73
2018-07-22T19:39:30.134Z,4.00
2018-07-22T19:42:16.871Z,3.97
2018-07-22T19:44:58.388Z,3.63
2018-07-22T19:47:58.776Z,4.90
2018-07-22T19:50:55.072Z,4.63
2018-07-22T19:56:39.002Z,2.80
2018-07-22T20:00:40.997Z,2.20
2018-07-22T20:03:23.044Z,1.90
2018-07-22T20:06:27.758Z,1.60
2018-07-22T20:09:12.471Z,1.60
2018-07-22T20:11:55.869Z,2.00
2018-07-22T20:14:36.427Z,1.60
2018-07-22T20:20:15.673Z,1.70
2018-07-22T20:23:00.662Z,2.07
2018-07-22T20:25:40.485Z,2.17
2018-07-22T20:28:17.623Z,2.07
2018-07-22T20:30:56.013Z,2.30
2018-07-22T20:33:36.591Z,2.03
2018-07-22T20:36:30.872Z,2.10
2018-07-22T20:39:16.166Z,2.00
2018-07-22T20:42:00.350Z,2.30
2018-07-22T20:44:42.003Z,2.17
2018-07-22T20:47:24.542Z,2.23
2018-07-22T20:50:14.793Z,2.10
2018-07-22T20:53:09.995Z,1.50
2018-07-22T20:55:49.370Z,1.93
2018-07-22T20:58:33.809Z,1.97
2018-07-22T21:01:12.967Z,2.63
2018-07-22T21:03:50.569Z,2.70
2018-07-22T21:16:51.016Z,3.10
2018-07-22T21:23:23.718Z,1.70
2018-07-22T21:26:38.058Z,2.47
2018-07-22T21:32:20.944Z,3.13
2018-07-22T21:34:59.855Z,3.20
2018-07-22T21:37:44.091Z,3.53
2018-07-22T21:40:23.232Z,3.57
2018-07-22T21:43:03.787Z,3.33
2018-07-22T21:45:51.765Z,3.80
2018-07-22T21:48:43.309Z,3.47
2018-07-22T21:51:27.478Z,3.60
2018-07-22T21:54:29.842Z,3.57
2018-07-22T21:57:47.849Z,3.63
2018-07-22T22:00:44.914Z,3.57
2018-07-22T22:03:42.571Z,3.30
2018-07-22T22:15:47.485Z,3.50
2018-07-22T22:18:47.577Z,3.30
2018-07-22T22:22:00.086Z,3.80
2018-07-22T22:33:37.371Z,3.37
2018-07-22T22:36:26.658Z,3.17
2018-07-22T22:39:10.803Z,3.67
2018-07-22T22:42:05.869Z,4.10
2018-07-22T22:47:40.598Z,3.27
2018-07-22T22:50:31.013Z,4.47
2018-07-22T22:56:26.494Z,4.10
2018-07-22T23:02:28.532Z,4.13
2018-07-22T23:07:58.017Z,4.53
2018-07-22T23:10:47.474Z,4.27
2018-07-22T23:25:13.194Z,4.57
2018-07-22T23:28:13.857Z,4.63
2018-07-22T23:31:28.134Z,4.37
2018-07-22T23:34:44.093Z,4.60
2018-07-22T23:37:40.289Z,4.60
2018-07-22T23:43:44.364Z,5.17
2018-07-22T23:46:30.184Z,5.03
2018-07-22T23:52:27.466Z,4.80
2018-07-22T23:55:30.542Z,4.80
2018-07-22T23:58:37.435Z,5.07
